createdAt,value
2024-03-28T00:00:04.114Z,8.71
2024-03-28T00:01:04.887Z,8.70
2024-03-28T00:02:05.644Z,8.71
2024-03-28T00:03:06.397Z,8.70
2024-03-28T00:04:07.141Z,8.71
2024-03-28T00:05:08.012Z,8.76
2024-03-28T00:06:08.718Z,8.79
2024-03-28T00:07:09.522Z,8.79
2024-03-28T00:08:10.230Z,8.78
2024-03-28T00:09:10.984Z,8.80
2024-03-28T00:10:11.786Z,8.75
2024-03-28T00:11:12.520Z,8.67
2024-03-28T00:12:13.299Z,8.67
2024-03-28T00:13:14.095Z,8.65
2024-03-28T00:14:14.865Z,8.64
2024-03-28T00:15:15.615Z,8.65
2024-03-28T00:16:16.396Z,8.67
2024-03-28T00:17:17.167Z,8.65
2024-03-28T00:18:17.895Z,8.63
2024-03-28T00:19:26.760Z,8.67
2024-03-28T00:20:20.299Z,8.67
2024-03-28T00:21:20.045Z,8.71
2024-03-28T00:22:20.829Z,8.70
2024-03-28T00:23:21.620Z,8.71
2024-03-28T00:24:22.326Z,8.71
2024-03-28T00:25:23.084Z,8.75
2024-03-28T00:26:23.828Z,8.75
2024-03-28T00:27:24.601Z,8.76
2024-03-28T00:28:25.348Z,8.71
2024-03-28T00:29:26.168Z,8.70
2024-03-28T00:30:26.891Z,8.68
2024-03-28T00:31:27.637Z,8.61
2024-03-28T00:32:28.432Z,8.57
2024-03-28T00:33:29.147Z,8.52
2024-03-28T00:34:29.919Z,8.52
2024-03-28T00:35:30.664Z,8.50
2024-03-28T00:36:31.412Z,8.54
2024-03-28T00:37:32.154Z,8.54
2024-03-28T00:38:32.912Z,8.58
2024-03-28T00:39:33.696Z,8.57
2024-03-28T00:40:34.616Z,8.57
2024-03-28T00:41:35.322Z,8.60
2024-03-28T00:42:36.067Z,8.60
2024-03-28T00:43:36.821Z,8.60
2024-03-28T00:44:37.595Z,8.65
2024-03-28T00:45:38.354Z,8.63
2024-03-28T00:46:39.098Z,8.60
2024-03-28T00:47:39.857Z,8.57
2024-03-28T00:48:40.598Z,8.54
2024-03-28T00:49:41.406Z,8.54
2024-03-28T00:50:42.144Z,8.52
2024-03-28T00:51:42.891Z,8.50
2024-03-28T00:52:43.676Z,8.45
2024-03-28T00:53:44.452Z,8.37
2024-03-28T00:54:45.241Z,8.29
2024-03-28T00:55:46.007Z,8.28
2024-03-28T00:56:46.752Z,8.28
2024-03-28T00:57:47.504Z,8.27
2024-03-28T00:58:48.261Z,8.25
2024-03-28T00:59:49.031Z,8.27
2024-03-28T01:00:49.799Z,8.31
2024-03-28T01:01:50.533Z,8.34
2024-03-28T01:02:51.299Z,8.32
2024-03-28T01:03:52.043Z,8.32
2024-03-28T01:04:52.807Z,8.32
2024-03-28T01:05:53.551Z,8.34
2024-03-28T01:06:54.320Z,8.36
2024-03-28T01:07:55.090Z,8.34
2024-03-28T01:08:55.852Z,8.29
2024-03-28T01:09:56.618Z,8.32
2024-03-28T01:10:57.389Z,8.36
2024-03-28T01:11:58.157Z,8.40
2024-03-28T01:12:58.946Z,8.43
2024-03-28T01:13:59.725Z,8.42
2024-03-28T01:15:00.434Z,8.39
2024-03-28T01:16:01.189Z,8.36
2024-03-28T01:17:01.965Z,8.32
2024-03-28T01:18:02.725Z,8.34
2024-03-28T01:19:03.501Z,8.32
2024-03-28T01:20:04.325Z,8.37
2024-03-28T01:21:05.032Z,8.39
2024-03-28T01:22:05.779Z,8.36
2024-03-28T01:23:06.534Z,8.36
2024-03-28T01:24:07.319Z,8.28
2024-03-28T01:25:08.162Z,8.28
2024-03-28T01:26:08.919Z,8.34
2024-03-28T01:27:09.680Z,8.36
2024-03-28T01:28:13.747Z,8.31
2024-03-28T01:29:11.154Z,8.31
2024-03-28T01:30:11.913Z,8.27
2024-03-28T01:31:12.666Z,8.24
2024-03-28T01:32:13.436Z,8.22
2024-03-28T01:33:14.197Z,8.21
2024-03-28T01:34:15.017Z,8.18
2024-03-28T01:35:15.752Z,8.20
2024-03-28T01:36:16.510Z,8.20
2024-03-28T01:37:17.276Z,8.22
2024-03-28T01:38:18.080Z,8.20
2024-03-28T01:39:18.855Z,8.17
2024-03-28T01:40:19.565Z,8.18
2024-03-28T01:41:20.366Z,8.12
2024-03-28T01:42:21.091Z,8.09
2024-03-28T01:43:21.845Z,8.10
2024-03-28T01:44:22.647Z,8.13
2024-03-28T01:45:23.379Z,8.14
2024-03-28T01:46:35.688Z,8.12
2024-03-28T01:47:42.048Z,8.10
2024-03-28T01:48:26.446Z,8.10
2024-03-28T01:49:26.234Z,8.07
2024-03-28T01:50:27.006Z,8.09
2024-03-28T01:51:27.760Z,8.07
2024-03-28T01:52:28.516Z,8.09
2024-03-28T01:53:29.283Z,8.03
2024-03-28T01:54:30.078Z,7.99
2024-03-28T01:55:30.819Z,7.99
2024-03-28T01:56:31.592Z,7.94
2024-03-28T01:57:32.327Z,7.94
2024-03-28T01:58:33.072Z,7.94
2024-03-28T01:59:33.848Z,7.92
2024-03-28T02:00:34.617Z,7.96
2024-03-28T02:01:35.360Z,7.92
2024-03-28T02:02:36.123Z,7.92
2024-03-28T02:03:36.876Z,7.94
2024-03-28T02:04:37.656Z,7.91
2024-03-28T02:05:38.475Z,7.92
2024-03-28T02:06:39.202Z,7.89
2024-03-28T02:07:39.968Z,7.92
2024-03-28T02:08:40.714Z,7.92
2024-03-28T02:09:41.496Z,7.89
2024-03-28T02:10:42.257Z,7.91
2024-03-28T02:11:43.115Z,7.95
2024-03-28T02:12:43.807Z,7.92
2024-03-28T02:13:44.565Z,7.88
2024-03-28T02:14:45.333Z,7.84
2024-03-28T02:15:46.307Z,7.79
2024-03-28T02:16:47.071Z,7.79
2024-03-28T02:17:47.826Z,7.77
2024-03-28T02:18:48.581Z,7.76
2024-03-28T02:19:49.350Z,7.76
2024-03-28T02:20:50.117Z,7.77
2024-03-28T02:21:50.837Z,7.77
2024-03-28T02:22:51.604Z,7.74
2024-03-28T02:23:52.359Z,7.79
2024-03-28T02:24:53.134Z,7.84
2024-03-28T02:25:53.911Z,7.82
2024-03-28T02:26:54.682Z,7.85
2024-03-28T02:27:55.435Z,7.82
2024-03-28T02:28:56.203Z,7.81
2024-03-28T02:29:56.976Z,7.77
2024-03-28T02:30:57.756Z,7.79
2024-03-28T02:31:58.519Z,7.76
2024-03-28T02:32:59.284Z,7.79
2024-03-28T02:34:00.039Z,7.77
2024-03-28T02:35:00.801Z,7.77
2024-03-28T02:36:01.553Z,7.74
2024-03-28T02:37:02.309Z,7.79
2024-03-28T02:38:03.082Z,7.79
2024-03-28T02:39:03.819Z,7.81
2024-03-28T02:40:04.576Z,7.79
2024-03-28T02:41:05.349Z,7.79
2024-03-28T02:42:06.108Z,7.79
2024-03-28T02:43:06.850Z,7.79
2024-03-28T02:44:07.609Z,7.82
2024-03-28T02:45:08.367Z,7.79
2024-03-28T02:46:09.165Z,7.81
2024-03-28T02:47:09.913Z,7.73
2024-03-28T02:48:10.682Z,7.73
2024-03-28T02:49:11.423Z,7.73
2024-03-28T02:50:12.172Z,7.77
2024-03-28T02:51:12.940Z,7.76
2024-03-28T02:52:13.712Z,7.77
2024-03-28T02:53:14.476Z,7.77
2024-03-28T02:54:15.216Z,7.81
2024-03-28T02:55:15.970Z,7.82
2024-03-28T02:56:16.734Z,7.82
2024-03-28T02:57:17.491Z,7.81
2024-03-28T02:58:18.232Z,7.77
2024-03-28T02:59:19.006Z,7.77
2024-03-28T03:00:19.734Z,7.77
2024-03-28T03:01:20.559Z,7.79
2024-03-28T03:02:21.298Z,7.76
2024-03-28T03:03:22.081Z,7.79
2024-03-28T03:04:22.831Z,7.77
2024-03-28T03:05:23.583Z,7.82
2024-03-28T03:06:24.341Z,7.82
2024-03-28T03:07:25.103Z,7.81
2024-03-28T03:08:25.842Z,7.77
2024-03-28T03:09:26.591Z,7.77
2024-03-28T03:10:27.366Z,7.77
2024-03-28T03:11:28.150Z,7.77
2024-03-28T03:12:28.909Z,7.74
2024-03-28T03:13:29.658Z,7.77
2024-03-28T03:14:30.406Z,7.77
2024-03-28T03:15:31.157Z,7.77
2024-03-28T03:16:31.951Z,7.77
2024-03-28T03:17:32.698Z,7.77
2024-03-28T03:18:33.470Z,7.79
2024-03-28T03:19:34.199Z,7.74
2024-03-28T03:20:34.967Z,7.79
2024-03-28T03:21:35.741Z,7.76
2024-03-28T03:22:36.535Z,7.77
2024-03-28T03:23:37.272Z,7.79
2024-03-28T03:24:38.020Z,7.76
2024-03-28T03:25:38.787Z,7.79
2024-03-28T03:26:39.546Z,7.79
2024-03-28T03:27:40.316Z,7.77
2024-03-28T03:28:41.070Z,7.77
2024-03-28T03:29:41.857Z,7.77
2024-03-28T03:30:42.606Z,7.77
2024-03-28T03:31:43.353Z,7.76
2024-03-28T03:32:44.105Z,7.74
2024-03-28T03:33:44.853Z,7.73
2024-03-28T03:34:45.657Z,7.73
2024-03-28T03:35:46.386Z,7.71
2024-03-28T03:36:47.154Z,7.74
2024-03-28T03:37:47.899Z,7.70
2024-03-28T03:38:48.655Z,7.71
2024-03-28T03:39:49.429Z,7.70
2024-03-28T03:40:50.177Z,7.73
2024-03-28T03:41:50.927Z,7.76
2024-03-28T03:42:51.699Z,7.73
2024-03-28T03:43:52.429Z,7.70
2024-03-28T03:44:53.175Z,7.73
2024-03-28T03:45:53.962Z,7.69
2024-03-28T03:46:54.691Z,7.66
2024-03-28T03:47:55.451Z,7.63
2024-03-28T03:48:56.182Z,7.67
2024-03-28T03:49:56.956Z,7.66
2024-03-28T03:50:57.715Z,7.67
2024-03-28T03:51:58.474Z,7.71
2024-03-28T03:52:59.238Z,7.70
2024-03-28T03:53:59.990Z,7.67
2024-03-28T03:55:00.759Z,7.67
2024-03-28T03:56:01.536Z,7.66
2024-03-28T03:57:02.279Z,7.63
2024-03-28T03:58:03.181Z,7.63
2024-03-28T03:59:03.882Z,7.60
2024-03-28T04:00:04.695Z,7.66
2024-03-28T04:01:05.463Z,7.60
2024-03-28T04:02:06.186Z,7.58
2024-03-28T04:03:06.944Z,7.58
2024-03-28T04:04:07.680Z,7.52
2024-03-28T04:05:08.458Z,7.52
2024-03-28T04:06:09.204Z,7.50
2024-03-28T04:07:10.072Z,7.51
2024-03-28T04:08:10.827Z,7.48
2024-03-28T04:09:11.586Z,7.50
2024-03-28T04:10:12.387Z,7.50
2024-03-28T04:11:13.109Z,7.47
2024-03-28T04:12:13.870Z,7.45
2024-03-28T04:13:14.631Z,7.48
2024-03-28T04:14:15.378Z,7.44
2024-03-28T04:15:16.167Z,7.45
2024-03-28T04:16:16.971Z,7.48
2024-03-28T04:17:17.790Z,7.52
2024-03-28T04:18:18.529Z,7.50
2024-03-28T04:19:19.319Z,7.51
2024-03-28T04:20:20.038Z,7.52
2024-03-28T04:21:20.804Z,7.52
2024-03-28T04:22:21.645Z,7.51
2024-03-28T04:23:22.358Z,7.48
2024-03-28T04:24:23.103Z,7.48
2024-03-28T04:25:23.894Z,7.48
2024-03-28T04:26:24.649Z,7.51
2024-03-28T04:27:25.395Z,7.52
2024-03-28T04:28:26.169Z,7.55
2024-03-28T04:29:26.907Z,7.50
2024-03-28T04:30:27.660Z,7.57
2024-03-28T04:31:28.484Z,7.52
2024-03-28T04:32:29.247Z,7.52
2024-03-28T04:33:30.033Z,7.58
2024-03-28T04:34:30.770Z,7.55
2024-03-28T04:35:31.535Z,7.55
2024-03-28T04:36:32.291Z,7.52
2024-03-28T04:37:33.040Z,7.57
2024-03-28T04:38:33.828Z,7.54
2024-03-28T04:39:34.596Z,7.50
2024-03-28T04:40:35.349Z,7.51
2024-03-28T04:41:36.104Z,7.54
2024-03-28T04:42:36.859Z,7.55
2024-03-28T04:43:39.301Z,7.52
2024-03-28T04:44:38.209Z,7.48
2024-03-28T04:45:38.969Z,7.51
2024-03-28T04:46:39.712Z,7.52
2024-03-28T04:47:40.489Z,7.52
2024-03-28T04:48:41.230Z,7.57
2024-03-28T04:49:41.995Z,7.58
2024-03-28T04:50:42.745Z,7.52
2024-03-28T04:51:43.521Z,7.51
2024-03-28T04:52:44.282Z,7.47
2024-03-28T04:53:45.011Z,7.44
2024-03-28T04:54:45.756Z,7.47
2024-03-28T04:55:46.509Z,7.47
2024-03-28T04:56:47.292Z,7.45
2024-03-28T04:57:48.030Z,7.44
2024-03-28T04:58:48.802Z,7.44
2024-03-28T04:59:49.569Z,7.44
2024-03-28T05:00:50.307Z,7.42
2024-03-28T05:01:51.138Z,7.41
2024-03-28T05:02:51.869Z,7.42
2024-03-28T05:03:52.653Z,7.42
2024-03-28T05:04:53.411Z,7.41
2024-03-28T05:05:54.181Z,7.39
2024-03-28T05:06:54.927Z,7.39
2024-03-28T05:07:55.676Z,7.41
2024-03-28T05:08:56.453Z,7.42
2024-03-28T05:09:57.209Z,7.41
2024-03-28T05:10:57.965Z,7.41
2024-03-28T05:11:58.718Z,7.34
2024-03-28T05:12:59.475Z,7.37
2024-03-28T05:14:00.252Z,7.33
2024-03-28T05:15:01.027Z,7.34
2024-03-28T05:16:01.771Z,7.36
2024-03-28T05:17:02.518Z,7.36
2024-03-28T05:18:03.312Z,7.37
2024-03-28T05:19:04.037Z,7.39
2024-03-28T05:20:04.795Z,7.42
2024-03-28T05:21:05.546Z,7.36
2024-03-28T05:22:06.296Z,7.37
2024-03-28T05:23:07.045Z,7.33
2024-03-28T05:24:07.840Z,7.32
2024-03-28T05:25:08.610Z,7.30
2024-03-28T05:26:09.326Z,7.30
2024-03-28T05:27:10.091Z,7.30
2024-03-28T05:28:10.830Z,7.30
2024-03-28T05:29:11.629Z,7.29
2024-03-28T05:30:12.412Z,7.27
2024-03-28T05:31:13.132Z,7.26
2024-03-28T05:32:13.922Z,7.24
2024-03-28T05:33:14.655Z,7.26
2024-03-28T05:34:15.438Z,7.26
2024-03-28T05:35:16.214Z,7.27
2024-03-28T05:36:16.943Z,7.30
2024-03-28T05:37:17.697Z,7.29
2024-03-28T05:38:18.469Z,7.29
2024-03-28T05:39:19.240Z,7.27
2024-03-28T05:40:19.992Z,7.26
2024-03-28T05:41:20.741Z,7.24
2024-03-28T05:42:21.493Z,7.23
2024-03-28T05:43:22.292Z,7.21
2024-03-28T05:44:23.030Z,7.23
2024-03-28T05:45:23.760Z,7.24
2024-03-28T05:46:24.531Z,7.26
2024-03-28T05:47:25.282Z,7.24
2024-03-28T05:48:26.022Z,7.24
2024-03-28T05:49:26.807Z,7.23
2024-03-28T05:50:27.561Z,7.16
2024-03-28T05:51:28.305Z,7.18
2024-03-28T05:52:29.086Z,7.19
2024-03-28T05:53:29.851Z,7.18
2024-03-28T05:54:30.581Z,7.18
2024-03-28T05:55:31.340Z,7.18
2024-03-28T05:56:32.088Z,7.18
2024-03-28T05:57:32.852Z,7.19
2024-03-28T05:58:33.599Z,7.21
2024-03-28T05:59:44.423Z,7.26
2024-03-28T06:00:35.151Z,7.24
2024-03-28T06:01:35.960Z,7.24
2024-03-28T06:02:36.786Z,7.26
2024-03-28T06:03:37.526Z,7.27
2024-03-28T06:04:38.319Z,7.29
2024-03-28T06:05:39.043Z,7.27
2024-03-28T06:06:39.781Z,7.32
2024-03-28T06:07:40.553Z,7.39
2024-03-28T06:08:41.317Z,7.41
2024-03-28T06:09:42.054Z,7.42
2024-03-28T06:10:42.831Z,7.48
2024-03-28T06:11:43.565Z,7.48
2024-03-28T06:12:44.347Z,7.48
2024-03-28T06:13:45.116Z,7.47
2024-03-28T06:14:45.884Z,7.45
2024-03-28T06:15:46.670Z,7.50
2024-03-28T06:16:47.426Z,7.54
2024-03-28T06:17:48.247Z,7.52
2024-03-28T06:18:49.018Z,7.50
2024-03-28T06:19:49.735Z,7.47
2024-03-28T06:20:50.482Z,7.48
2024-03-28T06:21:51.245Z,7.54
2024-03-28T06:22:52.024Z,7.54
2024-03-28T06:23:52.783Z,7.60
2024-03-28T06:24:53.588Z,7.67
2024-03-28T06:25:54.346Z,7.69
2024-03-28T06:26:55.085Z,7.70
2024-03-28T06:27:55.868Z,7.69
2024-03-28T06:28:56.646Z,7.69
2024-03-28T06:29:57.407Z,7.67
2024-03-28T06:30:58.190Z,7.73
2024-03-28T06:31:58.923Z,7.71
2024-03-28T06:32:59.715Z,7.73
2024-03-28T06:34:00.506Z,7.82
2024-03-28T06:35:01.243Z,7.81
2024-03-28T06:36:01.999Z,7.84
2024-03-28T06:37:02.761Z,7.88
2024-03-28T06:38:03.547Z,7.96
2024-03-28T06:39:04.444Z,8.03
2024-03-28T06:40:05.155Z,8.02
2024-03-28T06:41:05.889Z,8.04
2024-03-28T06:42:06.643Z,8.07
2024-03-28T06:43:07.391Z,8.07
2024-03-28T06:44:08.172Z,8.04
2024-03-28T06:45:08.950Z,8.06
2024-03-28T06:46:09.697Z,8.06
2024-03-28T06:47:10.438Z,8.07
2024-03-28T06:48:11.195Z,8.10
2024-03-28T06:49:11.960Z,8.02
2024-03-28T06:50:12.722Z,8.02
2024-03-28T06:51:13.484Z,8.06
2024-03-28T06:52:14.243Z,8.07
2024-03-28T06:53:15.008Z,8.12
2024-03-28T06:54:15.810Z,8.20
2024-03-28T06:55:16.557Z,8.12
2024-03-28T06:56:17.314Z,8.09
2024-03-28T06:57:18.075Z,8.17
2024-03-28T06:58:18.837Z,8.12
2024-03-28T06:59:19.635Z,8.12
2024-03-28T07:00:20.383Z,8.14
2024-03-28T07:01:21.143Z,8.20
2024-03-28T07:02:21.906Z,8.24
2024-03-28T07:03:22.650Z,8.27
2024-03-28T07:04:23.445Z,8.25
2024-03-28T07:05:24.194Z,8.32
2024-03-28T07:06:24.946Z,8.45
2024-03-28T07:07:25.754Z,8.49
2024-03-28T07:08:26.499Z,8.45
2024-03-28T07:09:27.270Z,8.50
2024-03-28T07:10:28.061Z,8.65
2024-03-28T07:11:28.808Z,8.65
2024-03-28T07:12:29.580Z,8.63
2024-03-28T07:13:30.339Z,8.57
2024-03-28T07:14:31.086Z,8.63
2024-03-28T07:15:31.851Z,8.65
2024-03-28T07:16:32.587Z,8.68
2024-03-28T07:17:33.330Z,8.70
2024-03-28T07:18:34.177Z,8.82
2024-03-28T07:19:34.913Z,8.79
2024-03-28T07:20:35.720Z,8.79
2024-03-28T07:21:36.528Z,8.88
2024-03-28T07:22:37.250Z,8.91
2024-03-28T07:23:38.024Z,8.93
2024-03-28T07:24:38.803Z,8.91
2024-03-28T07:25:39.588Z,8.86
2024-03-28T07:26:40.375Z,8.79
2024-03-28T07:27:41.128Z,8.88
2024-03-28T07:28:41.877Z,9.00
2024-03-28T07:29:42.655Z,9.08
2024-03-28T07:30:43.428Z,9.17
2024-03-28T07:31:44.196Z,9.03
2024-03-28T07:32:44.951Z,8.86
2024-03-28T07:33:45.700Z,8.88
2024-03-28T07:34:46.470Z,8.91
2024-03-28T07:35:47.231Z,8.94
2024-03-28T07:36:48.009Z,9.12
2024-03-28T07:37:48.724Z,9.26
2024-03-28T07:38:49.473Z,9.23
2024-03-28T07:39:50.216Z,9.13
2024-03-28T07:40:51.023Z,9.16
2024-03-28T07:41:51.792Z,9.19
2024-03-28T07:42:52.660Z,9.23
2024-03-28T07:43:53.439Z,9.32
2024-03-28T07:44:54.172Z,9.35
2024-03-28T07:45:54.995Z,9.27
2024-03-28T07:46:55.745Z,9.15
2024-03-28T07:47:56.487Z,9.16
2024-03-28T07:48:57.254Z,9.12
2024-03-28T07:49:58.002Z,9.03
2024-03-28T07:50:58.773Z,9.01
2024-03-28T07:51:59.539Z,9.19
2024-03-28T07:53:00.285Z,9.20
2024-03-28T07:54:01.049Z,9.19
2024-03-28T07:55:01.814Z,9.27
2024-03-28T07:56:02.599Z,9.35
2024-03-28T07:57:03.364Z,9.50
2024-03-28T07:58:04.168Z,9.50
2024-03-28T07:59:04.913Z,9.41
2024-03-28T08:00:05.647Z,9.35
2024-03-28T08:01:06.448Z,9.31
2024-03-28T08:02:07.247Z,9.41
2024-03-28T08:03:07.978Z,9.35
2024-03-28T08:04:08.724Z,9.45
2024-03-28T08:05:09.473Z,9.38
2024-03-28T08:06:10.255Z,9.40
2024-03-28T08:07:11.009Z,9.53
2024-03-28T08:08:11.833Z,9.53
2024-03-28T08:09:13.413Z,9.62
2024-03-28T08:10:13.209Z,9.71
2024-03-28T08:11:13.954Z,9.78
2024-03-28T08:12:14.720Z,9.85
2024-03-28T08:13:15.471Z,9.89
2024-03-28T08:14:16.209Z,9.93
2024-03-28T08:15:16.984Z,9.75
2024-03-28T08:16:17.737Z,9.88
2024-03-28T08:17:18.495Z,10.09
2024-03-28T08:18:19.227Z,10.34
2024-03-28T08:19:19.995Z,10.60
2024-03-28T08:20:20.742Z,10.87
2024-03-28T08:21:21.486Z,10.83
2024-03-28T08:22:22.233Z,11.03
2024-03-28T08:23:23.001Z,11.48
2024-03-28T08:24:23.783Z,11.53
2024-03-28T08:25:24.544Z,12.26
2024-03-28T08:26:25.290Z,12.87
2024-03-28T08:27:26.054Z,12.77
2024-03-28T08:28:26.823Z,13.83
2024-03-28T08:29:27.589Z,14.30
2024-03-28T08:30:28.841Z,14.83
2024-03-28T08:31:29.124Z,15.76
2024-03-28T08:32:29.906Z,15.15
2024-03-28T08:33:30.632Z,15.22
2024-03-28T08:34:31.403Z,15.35
2024-03-28T08:35:32.145Z,15.23
2024-03-28T08:36:32.900Z,15.51
2024-03-28T08:37:33.666Z,16.08
2024-03-28T08:38:34.427Z,15.96
2024-03-28T08:39:35.189Z,16.84
2024-03-28T08:40:35.950Z,17.22
2024-03-28T08:41:36.720Z,17.09
2024-03-28T08:42:37.455Z,16.70
2024-03-28T08:43:38.218Z,16.62
2024-03-28T08:44:39.014Z,17.12
2024-03-28T08:45:39.755Z,17.32
2024-03-28T08:46:40.497Z,17.70
2024-03-28T08:47:41.262Z,17.70
2024-03-28T08:48:41.991Z,17.65
2024-03-28T08:49:42.756Z,17.76
2024-03-28T08:50:43.516Z,18.51
2024-03-28T08:51:44.259Z,18.46
2024-03-28T08:52:45.014Z,18.74
2024-03-28T08:53:45.759Z,19.94
2024-03-28T08:54:46.540Z,18.35
2024-03-28T08:55:47.275Z,16.81
2024-03-28T08:56:48.042Z,15.41
2024-03-28T08:57:48.787Z,14.78
2024-03-28T08:58:49.535Z,13.98
2024-03-28T08:59:50.276Z,13.62
2024-03-28T09:00:51.021Z,13.83
2024-03-28T09:01:51.775Z,13.44
2024-03-28T09:02:52.571Z,13.17
2024-03-28T09:03:53.309Z,12.87
2024-03-28T09:04:54.083Z,12.59
2024-03-28T09:05:54.831Z,12.54
2024-03-28T09:06:55.590Z,12.54
2024-03-28T09:07:56.368Z,12.56
2024-03-28T09:08:57.136Z,12.38
2024-03-28T09:09:57.889Z,12.29
2024-03-28T09:10:58.631Z,12.22
2024-03-28T09:11:59.380Z,12.23
2024-03-28T09:13:00.166Z,12.22
2024-03-28T09:14:00.896Z,12.25
2024-03-28T09:15:01.660Z,12.22
2024-03-28T09:16:02.409Z,12.29
2024-03-28T09:17:03.158Z,12.22
2024-03-28T09:18:03.961Z,12.23
2024-03-28T09:19:04.702Z,12.18
2024-03-28T09:20:05.454Z,12.04
2024-03-28T09:21:06.225Z,11.97
2024-03-28T09:22:06.973Z,11.98
2024-03-28T09:23:07.744Z,12.04
2024-03-28T09:24:08.508Z,12.48
2024-03-28T09:25:09.260Z,13.09
2024-03-28T09:26:10.004Z,14.74
2024-03-28T09:27:10.792Z,16.23
2024-03-28T09:28:11.533Z,17.51
2024-03-28T09:29:12.281Z,17.80
2024-03-28T09:30:13.025Z,18.38
2024-03-28T09:31:13.781Z,18.64
2024-03-28T09:32:14.544Z,18.44
2024-03-28T09:33:15.316Z,18.54
2024-03-28T09:34:16.055Z,18.35
2024-03-28T09:35:16.794Z,17.20
2024-03-28T09:36:21.554Z,16.25
2024-03-28T09:37:18.054Z,15.84
2024-03-28T09:38:18.848Z,15.43
2024-03-28T09:39:19.639Z,14.75
2024-03-28T09:40:20.395Z,14.35
2024-03-28T09:41:21.170Z,13.91
2024-03-28T09:42:21.916Z,13.51
2024-03-28T09:43:22.668Z,13.31
2024-03-28T09:44:23.440Z,12.94
2024-03-28T09:45:24.198Z,12.66
2024-03-28T09:46:24.935Z,12.62
2024-03-28T09:47:25.738Z,12.51
2024-03-28T09:48:26.494Z,12.54
2024-03-28T09:49:27.239Z,12.49
2024-03-28T09:50:28.000Z,12.43
2024-03-28T09:51:28.787Z,12.30
2024-03-28T09:52:29.551Z,12.00
2024-03-28T09:53:30.264Z,11.87
2024-03-28T09:54:31.035Z,11.77
2024-03-28T09:55:31.791Z,11.78
2024-03-28T09:56:32.544Z,11.67
2024-03-28T09:57:33.302Z,11.56
2024-03-28T09:58:34.074Z,11.46
2024-03-28T09:59:34.818Z,11.45
2024-03-28T10:00:35.589Z,11.39
2024-03-28T10:01:36.348Z,11.26
2024-03-28T10:02:37.090Z,11.20
2024-03-28T10:03:37.849Z,11.21
2024-03-28T10:04:38.598Z,11.16
2024-03-28T10:05:39.361Z,11.16
2024-03-28T10:06:40.132Z,11.08
2024-03-28T10:07:40.877Z,11.02
2024-03-28T10:08:41.636Z,10.90
2024-03-28T10:09:42.404Z,10.83
2024-03-28T10:10:43.172Z,10.76
2024-03-28T10:11:43.908Z,10.75
2024-03-28T10:12:44.672Z,10.73
2024-03-28T10:13:45.413Z,10.72
2024-03-28T10:14:46.198Z,10.68
2024-03-28T10:15:46.952Z,10.69
2024-03-28T10:16:47.708Z,10.70
2024-03-28T10:17:48.463Z,10.68
2024-03-28T10:18:49.238Z,10.58
2024-03-28T10:19:49.980Z,10.57
2024-03-28T10:20:50.741Z,10.46
2024-03-28T10:21:51.495Z,10.38
2024-03-28T10:22:52.261Z,10.36
2024-03-28T10:23:53.141Z,10.35
2024-03-28T10:24:53.969Z,10.38
2024-03-28T10:25:54.787Z,10.35
2024-03-28T10:26:55.488Z,10.34
2024-03-28T10:27:56.308Z,10.28
2024-03-28T10:28:57.028Z,10.11
2024-03-28T10:29:57.856Z,9.92
2024-03-28T10:30:58.576Z,9.83
2024-03-28T10:31:59.366Z,9.70
2024-03-28T10:33:00.157Z,9.59
2024-03-28T10:34:00.873Z,9.50
2024-03-28T10:35:01.697Z,9.34
2024-03-28T10:36:02.458Z,9.19
2024-03-28T10:37:03.245Z,9.06
2024-03-28T10:38:09.102Z,9.00
2024-03-28T10:39:05.697Z,8.91
2024-03-28T10:40:05.455Z,8.83
2024-03-28T10:41:06.256Z,8.70
2024-03-28T10:42:07.020Z,8.52
2024-03-28T10:43:07.845Z,8.40
2024-03-28T10:44:08.637Z,8.31
2024-03-28T10:45:09.488Z,8.25
2024-03-28T10:46:10.201Z,8.13
2024-03-28T10:47:10.961Z,8.09
2024-03-28T10:48:11.729Z,8.02
2024-03-28T10:49:12.543Z,7.91
2024-03-28T10:50:14.328Z,7.92
2024-03-28T10:51:13.813Z,7.91
2024-03-28T10:52:14.573Z,7.88
2024-03-28T10:53:15.333Z,7.82
2024-03-28T10:54:22.212Z,7.79
2024-03-28T10:55:17.779Z,7.77
2024-03-28T10:56:17.521Z,7.76
2024-03-28T10:57:18.301Z,7.77
2024-03-28T10:58:19.033Z,7.79
2024-03-28T10:59:19.789Z,7.71
2024-03-28T11:00:20.565Z,7.77
2024-03-28T11:01:21.333Z,7.79
2024-03-28T11:02:22.067Z,7.84
2024-03-28T11:03:22.824Z,7.81
2024-03-28T11:04:23.589Z,7.85
2024-03-28T11:05:24.366Z,7.81
2024-03-28T11:06:25.121Z,7.74
2024-03-28T11:07:25.882Z,7.66
2024-03-28T11:08:41.400Z,7.62
2024-03-28T11:09:27.636Z,7.60
2024-03-28T11:10:28.446Z,7.63
2024-03-28T11:11:29.185Z,7.57
2024-03-28T11:12:30.018Z,7.57
2024-03-28T11:13:30.813Z,7.60
2024-03-28T11:14:31.582Z,7.71
2024-03-28T11:15:32.339Z,7.74
2024-03-28T11:16:33.080Z,7.79
2024-03-28T11:17:33.845Z,7.77
2024-03-28T11:18:34.690Z,7.82
2024-03-28T11:19:35.456Z,7.76
2024-03-28T11:20:36.201Z,7.76
2024-03-28T11:21:36.972Z,7.77
2024-03-28T11:22:37.768Z,7.70
2024-03-28T11:23:38.489Z,7.71
2024-03-28T11:24:39.233Z,7.79
2024-03-28T11:25:40.608Z,7.71
2024-03-28T11:26:40.976Z,7.71
2024-03-28T11:27:41.739Z,7.71
2024-03-28T11:28:42.527Z,7.77
2024-03-28T11:29:43.249Z,7.82
2024-03-28T11:30:44.053Z,7.92
2024-03-28T11:31:45.767Z,7.94
2024-03-28T11:32:45.635Z,7.86
2024-03-28T11:33:46.375Z,7.84
2024-03-28T11:34:47.124Z,7.84
2024-03-28T11:35:47.881Z,7.81
2024-03-28T11:36:48.632Z,7.82
2024-03-28T11:37:49.400Z,7.76
2024-03-28T11:38:50.147Z,7.81
2024-03-28T11:39:50.920Z,7.79
2024-03-28T11:40:51.656Z,7.82
2024-03-28T11:41:52.429Z,7.82
2024-03-28T11:42:53.188Z,7.84
2024-03-28T11:43:53.982Z,7.82
2024-03-28T11:44:54.782Z,7.86
2024-03-28T11:45:55.519Z,7.85
2024-03-28T11:46:56.275Z,7.86
2024-03-28T11:47:57.035Z,7.92
2024-03-28T11:48:57.807Z,7.99
2024-03-28T11:49:58.568Z,7.99
2024-03-28T11:50:59.351Z,7.96
2024-03-28T11:52:00.067Z,7.95
2024-03-28T11:53:00.913Z,7.96
2024-03-28T11:54:04.733Z,7.95
2024-03-28T11:55:02.281Z,7.86
2024-03-28T11:56:03.022Z,7.86
2024-03-28T11:57:03.778Z,7.92
2024-03-28T11:58:04.571Z,7.86
2024-03-28T11:59:05.299Z,7.79
2024-03-28T12:00:06.077Z,7.74
2024-03-28T12:01:06.816Z,7.71
2024-03-28T12:02:07.576Z,7.73
2024-03-28T12:03:08.336Z,7.77
2024-03-28T12:04:09.117Z,7.77
2024-03-28T12:05:09.934Z,7.82
2024-03-28T12:06:10.647Z,7.86
2024-03-28T12:07:11.398Z,7.86
2024-03-28T12:08:12.152Z,7.81
2024-03-28T12:09:12.894Z,7.82
2024-03-28T12:10:13.684Z,7.82
2024-03-28T12:11:14.452Z,7.91
2024-03-28T12:12:15.201Z,7.94
2024-03-28T12:13:15.957Z,7.89
2024-03-28T12:14:16.713Z,7.85
2024-03-28T12:15:17.496Z,7.86
2024-03-28T12:16:18.262Z,7.86
2024-03-28T12:17:19.019Z,7.89
2024-03-28T12:18:19.741Z,7.92
2024-03-28T12:19:20.481Z,8.03
2024-03-28T12:20:21.270Z,8.04
2024-03-28T12:21:22.012Z,8.02
2024-03-28T12:22:22.765Z,8.02
2024-03-28T12:23:23.544Z,7.99
2024-03-28T12:24:24.294Z,7.99
2024-03-28T12:25:25.061Z,8.03
2024-03-28T12:26:30.928Z,8.06
2024-03-28T12:27:27.473Z,8.10
2024-03-28T12:28:27.226Z,8.17
2024-03-28T12:29:27.991Z,8.14
2024-03-28T12:30:28.736Z,8.13
2024-03-28T12:31:29.550Z,8.21
2024-03-28T12:32:30.315Z,8.21
2024-03-28T12:33:31.052Z,8.18
2024-03-28T12:45:47.986Z,8.14
2024-03-28T12:46:48.862Z,8.13
2024-03-28T12:47:49.274Z,8.03
2024-03-28T12:48:50.139Z,7.99
2024-03-28T12:49:50.884Z,7.86
2024-03-28T12:50:51.676Z,7.73
2024-03-28T12:51:52.413Z,7.60
2024-03-28T12:59:44.365Z,7.27
2024-03-28T13:00:45.043Z,7.26
2024-03-28T13:01:45.972Z,7.30
2024-03-28T13:02:46.750Z,7.36
2024-03-28T13:03:47.582Z,7.50
2024-03-28T13:04:48.339Z,7.58
2024-03-28T13:05:49.093Z,7.67
2024-03-28T13:06:54.644Z,7.69
2024-03-28T13:07:51.525Z,7.81
2024-03-28T13:08:51.281Z,7.88
2024-03-28T13:09:52.051Z,7.92
2024-03-28T13:10:52.817Z,7.94
2024-03-28T13:11:55.140Z,8.04
2024-03-28T13:12:54.505Z,8.17
2024-03-28T13:13:55.278Z,8.27
2024-03-28T13:15:06.720Z,8.37
2024-03-28T13:15:56.985Z,8.58
2024-03-28T13:16:57.752Z,8.64
2024-03-28T13:17:58.514Z,8.70
2024-03-28T13:18:59.251Z,8.68
2024-03-28T13:20:00.017Z,8.63
2024-03-28T13:21:00.785Z,8.64
2024-03-28T13:22:01.522Z,8.75
2024-03-28T13:23:02.277Z,8.83
2024-03-28T13:24:03.103Z,8.96
2024-03-28T13:25:03.864Z,9.08
2024-03-28T13:26:14.901Z,9.06
2024-03-28T13:28:06.908Z,9.08
2024-03-28T13:29:06.692Z,9.13
2024-03-28T13:30:07.446Z,9.31
2024-03-28T13:31:08.202Z,9.34
2024-03-28T13:32:08.964Z,9.41
2024-03-28T13:33:09.700Z,9.56
2024-03-28T13:34:10.482Z,9.86
2024-03-28T13:35:11.235Z,9.91
2024-03-28T13:36:11.998Z,9.88
2024-03-28T13:37:12.764Z,9.93
2024-03-28T13:38:13.526Z,10.06
2024-03-28T13:39:14.294Z,9.98
2024-03-28T13:40:15.075Z,10.09
2024-03-28T13:41:15.797Z,10.06
2024-03-28T13:42:16.548Z,10.10